sensor_id;sensor_type;location;lat;lon;timestamp;temperature;humidity
439;DHT22;206;48.782;9.252;2023-07-28T00:01:31;20.30;69.60
439;DHT22;206;48.782;9.252;2023-07-28T00:03:56;20.30;69.50
439;DHT22;206;48.782;9.252;2023-07-28T00:06:23;20.20;69.60
439;DHT22;206;48.782;9.252;2023-07-28T00:08:49;20.20;69.80
439;DHT22;206;48.782;9.252;2023-07-28T00:11:15;20.20;69.50
439;DHT22;206;48.782;9.252;2023-07-28T00:13:41;20.10;69.80
439;DHT22;206;48.782;9.252;2023-07-28T00:16:07;20.00;70.00
439;DHT22;206;48.782;9.252;2023-07-28T00:18:33;20.00;70.00
439;DHT22;206;48.782;9.252;2023-07-28T00:20:59;20.00;69.10
439;DHT22;206;48.782;9.252;2023-07-28T00:23:24;20.00;68.30
439;DHT22;206;48.782;9.252;2023-07-28T00:25:50;20.00;67.60
439;DHT22;206;48.782;9.252;2023-07-28T00:28:16;20.00;67.60
439;DHT22;206;48.782;9.252;2023-07-28T00:30:41;20.00;66.80
439;DHT22;206;48.782;9.252;2023-07-28T00:33:07;20.00;66.10
439;DHT22;206;48.782;9.252;2023-07-28T00:35:33;19.90;66.20
439;DHT22;206;48.782;9.252;2023-07-28T00:37:58;19.80;66.40
439;DHT22;206;48.782;9.252;2023-07-28T00:40:24;19.80;66.10
439;DHT22;206;48.782;9.252;2023-07-28T00:42:50;19.90;64.60
439;DHT22;206;48.782;9.252;2023-07-28T00:45:15;19.90;62.70
439;DHT22;206;48.782;9.252;2023-07-28T00:47:42;19.90;63.60
439;DHT22;206;48.782;9.252;2023-07-28T00:50:10;20.00;64.00
439;DHT22;206;48.782;9.252;2023-07-28T00:52:37;19.90;64.20
439;DHT22;206;48.782;9.252;2023-07-28T00:55:03;19.90;63.20
439;DHT22;206;48.782;9.252;2023-07-28T00:57:28;19.90;64.10
439;DHT22;206;48.782;9.252;2023-07-28T00:59:54;19.80;64.90
439;DHT22;206;48.782;9.252;2023-07-28T01:02:20;19.70;66.50
439;DHT22;206;48.782;9.252;2023-07-28T01:04:47;19.70;67.30
439;DHT22;206;48.782;9.252;2023-07-28T01:07:17;19.50;69.10
439;DHT22;206;48.782;9.252;2023-07-28T01:10:12;19.30;69.10
439;DHT22;206;48.782;9.252;2023-07-28T01:12:38;19.20;68.40
439;DHT22;206;48.782;9.252;2023-07-28T01:15:04;19.20;68.00
439;DHT22;206;48.782;9.252;2023-07-28T01:17:30;19.10;67.70
439;DHT22;206;48.782;9.252;2023-07-28T01:19:55;19.20;67.10
439;DHT22;206;48.782;9.252;2023-07-28T01:25:35;19.20;66.80
439;DHT22;206;48.782;9.252;2023-07-28T01:28:02;19.20;67.50
439;DHT22;206;48.782;9.252;2023-07-28T01:30:29;19.10;67.50
439;DHT22;206;48.782;9.252;2023-07-28T01:32:55;19.10;67.50
439;DHT22;206;48.782;9.252;2023-07-28T01:35:21;19.10;67.70
439;DHT22;206;48.782;9.252;2023-07-28T01:37:47;19.20;67.80
439;DHT22;206;48.782;9.252;2023-07-28T01:40:17;19.30;66.80
439;DHT22;206;48.782;9.252;2023-07-28T01:42:42;19.30;66.40
439;DHT22;206;48.782;9.252;2023-07-28T01:45:08;19.20;67.00
439;DHT22;206;48.782;9.252;2023-07-28T01:47:34;19.20;67.00
439;DHT22;206;48.782;9.252;2023-07-28T01:50:00;19.10;67.30
439;DHT22;206;48.782;9.252;2023-07-28T01:52:25;19.00;68.80
439;DHT22;206;48.782;9.252;2023-07-28T01:54:51;19.00;70.50
439;DHT22;206;48.782;9.252;2023-07-28T01:57:17;18.90;70.80
439;DHT22;206;48.782;9.252;2023-07-28T01:59:42;18.90;71.50
439;DHT22;206;48.782;9.252;2023-07-28T02:02:08;18.90;70.90
439;DHT22;206;48.782;9.252;2023-07-28T02:04:33;18.90;71.10
439;DHT22;206;48.782;9.252;2023-07-28T02:06:59;18.90;71.50
439;DHT22;206;48.782;9.252;2023-07-28T02:09:25;18.90;70.70
439;DHT22;206;48.782;9.252;2023-07-28T02:11:50;18.90;70.60
439;DHT22;206;48.782;9.252;2023-07-28T02:14:16;18.90;70.10
439;DHT22;206;48.782;9.252;2023-07-28T02:16:41;18.90;70.00
439;DHT22;206;48.782;9.252;2023-07-28T02:19:07;18.90;69.30
439;DHT22;206;48.782;9.252;2023-07-28T02:21:33;19.00;67.80
439;DHT22;206;48.782;9.252;2023-07-28T02:23:58;19.10;66.40
439;DHT22;206;48.782;9.252;2023-07-28T02:26:24;19.00;66.50
439;DHT22;206;48.782;9.252;2023-07-28T02:28:50;18.90;67.10
439;DHT22;206;48.782;9.252;2023-07-28T02:31:15;18.90;67.60
439;DHT22;206;48.782;9.252;2023-07-28T02:33:41;19.00;66.50
439;DHT22;206;48.782;9.252;2023-07-28T02:36:06;19.10;65.80
439;DHT22;206;48.782;9.252;2023-07-28T02:38:32;19.20;64.40
439;DHT22;206;48.782;9.252;2023-07-28T02:40:57;19.30;64.00
439;DHT22;206;48.782;9.252;2023-07-28T02:43:23;19.30;64.20
439;DHT22;206;48.782;9.252;2023-07-28T02:45:54;19.30;64.30
439;DHT22;206;48.782;9.252;2023-07-28T02:48:20;19.30;64.30
439;DHT22;206;48.782;9.252;2023-07-28T02:50:47;19.30;64.30
439;DHT22;206;48.782;9.252;2023-07-28T02:53:13;19.30;63.70
439;DHT22;206;48.782;9.252;2023-07-28T02:55:43;19.40;63.00
439;DHT22;206;48.782;9.252;2023-07-28T02:58:12;19.50;62.60
439;DHT22;206;48.782;9.252;2023-07-28T03:00:39;19.40;62.80
439;DHT22;206;48.782;9.252;2023-07-28T03:03:05;19.50;62.40
439;DHT22;206;48.782;9.252;2023-07-28T03:05:31;19.50;62.40
439;DHT22;206;48.782;9.252;2023-07-28T03:07:57;19.40;62.60
439;DHT22;206;48.782;9.252;2023-07-28T03:10:23;19.40;62.80
439;DHT22;206;48.782;9.252;2023-07-28T03:12:48;19.50;62.90
439;DHT22;206;48.782;9.252;2023-07-28T03:15:14;19.50;62.80
439;DHT22;206;48.782;9.252;2023-07-28T03:17:39;19.50;62.00
439;DHT22;206;48.782;9.252;2023-07-28T03:20:05;19.60;62.10
439;DHT22;206;48.782;9.252;2023-07-28T03:22:31;19.60;62.00
439;DHT22;206;48.782;9.252;2023-07-28T03:24:57;19.70;62.10
439;DHT22;206;48.782;9.252;2023-07-28T03:27:23;19.70;62.50
439;DHT22;206;48.782;9.252;2023-07-28T03:29:48;19.70;62.40
439;DHT22;206;48.782;9.252;2023-07-28T03:32:14;19.70;63.30
439;DHT22;206;48.782;9.252;2023-07-28T03:34:40;19.70;63.80
439;DHT22;206;48.782;9.252;2023-07-28T03:37:05;19.70;64.00
439;DHT22;206;48.782;9.252;2023-07-28T03:39:31;19.70;64.20
439;DHT22;206;48.782;9.252;2023-07-28T03:41:57;19.70;64.80
439;DHT22;206;48.782;9.252;2023-07-28T03:44:23;19.60;64.50
439;DHT22;206;48.782;9.252;2023-07-28T03:46:49;19.60;64.50
439;DHT22;206;48.782;9.252;2023-07-28T03:49:14;19.60;65.10
439;DHT22;206;48.782;9.252;2023-07-28T03:51:40;19.60;65.30
439;DHT22;206;48.782;9.252;2023-07-28T03:54:05;19.50;65.40
439;DHT22;206;48.782;9.252;2023-07-28T03:56:31;19.40;66.60
439;DHT22;206;48.782;9.252;2023-07-28T03:58:57;19.30;66.80
439;DHT22;206;48.782;9.252;2023-07-28T04:01:22;19.30;67.40
439;DHT22;206;48.782;9.252;2023-07-28T04:03:48;19.40;67.30
439;DHT22;206;48.782;9.252;2023-07-28T04:06:13;19.40;66.60
439;DHT22;206;48.782;9.252;2023-07-28T04:08:39;19.40;66.20
439;DHT22;206;48.782;9.252;2023-07-28T04:11:05;19.40;66.30
439;DHT22;206;48.782;9.252;2023-07-28T04:13:31;19.50;65.60
439;DHT22;206;48.782;9.252;2023-07-28T04:15:57;19.40;65.70
439;DHT22;206;48.782;9.252;2023-07-28T04:18:22;19.40;66.00
439;DHT22;206;48.782;9.252;2023-07-28T04:20:48;19.40;66.00
439;DHT22;206;48.782;9.252;2023-07-28T04:23:14;19.30;66.10
439;DHT22;206;48.782;9.252;2023-07-28T04:25:39;19.20;66.70
439;DHT22;206;48.782;9.252;2023-07-28T04:28:05;19.10;67.80
439;DHT22;206;48.782;9.252;2023-07-28T04:30:30;19.20;68.00
439;DHT22;206;48.782;9.252;2023-07-28T04:32:56;19.30;67.50
439;DHT22;206;48.782;9.252;2023-07-28T04:35:21;19.30;66.80
439;DHT22;206;48.782;9.252;2023-07-28T04:37:47;19.30;66.80
439;DHT22;206;48.782;9.252;2023-07-28T04:40:13;19.30;67.40
439;DHT22;206;48.782;9.252;2023-07-28T04:42:39;19.20;68.10
439;DHT22;206;48.782;9.252;2023-07-28T04:45:05;19.20;68.60
439;DHT22;206;48.782;9.252;2023-07-28T04:47:31;19.20;68.80
439;DHT22;206;48.782;9.252;2023-07-28T04:49:56;19.40;68.90
439;DHT22;206;48.782;9.252;2023-07-28T04:52:22;19.40;68.50
439;DHT22;206;48.782;9.252;2023-07-28T04:54:47;19.40;68.60
439;DHT22;206;48.782;9.252;2023-07-28T04:57:13;19.40;69.00
439;DHT22;206;48.782;9.252;2023-07-28T04:59:38;19.50;68.90
439;DHT22;206;48.782;9.252;2023-07-28T05:02:04;19.50;69.10
439;DHT22;206;48.782;9.252;2023-07-28T05:04:30;19.40;69.30
439;DHT22;206;48.782;9.252;2023-07-28T05:06:55;19.40;69.60
439;DHT22;206;48.782;9.252;2023-07-28T05:09:21;19.50;70.00
439;DHT22;206;48.782;9.252;2023-07-28T05:11:47;19.40;70.60
439;DHT22;206;48.782;9.252;2023-07-28T05:14:12;19.40;70.30
439;DHT22;206;48.782;9.252;2023-07-28T05:16:38;19.40;70.90
439;DHT22;206;48.782;9.252;2023-07-28T05:19:06;19.50;71.70
439;DHT22;206;48.782;9.252;2023-07-28T05:21:32;19.60;70.90
439;DHT22;206;48.782;9.252;2023-07-28T05:23:58;19.60;70.30
439;DHT22;206;48.782;9.252;2023-07-28T05:26:24;19.70;70.80
439;DHT22;206;48.782;9.252;2023-07-28T05:28:50;19.70;72.00
439;DHT22;206;48.782;9.252;2023-07-28T05:31:16;19.70;70.70
439;DHT22;206;48.782;9.252;2023-07-28T05:33:41;19.70;70.30
439;DHT22;206;48.782;9.252;2023-07-28T05:36:07;19.70;70.30
439;DHT22;206;48.782;9.252;2023-07-28T05:38:33;19.70;70.90
439;DHT22;206;48.782;9.252;2023-07-28T05:40:59;19.60;72.20
439;DHT22;206;48.782;9.252;2023-07-28T05:43:29;19.60;73.20
439;DHT22;206;48.782;9.252;2023-07-28T05:45:56;19.70;73.30
439;DHT22;206;48.782;9.252;2023-07-28T05:48:22;19.70;73.70
439;DHT22;206;48.782;9.252;2023-07-28T05:50:47;19.70;73.30
439;DHT22;206;48.782;9.252;2023-07-28T05:53:13;19.80;73.60
439;DHT22;206;48.782;9.252;2023-07-28T05:55:39;19.80;73.60
439;DHT22;206;48.782;9.252;2023-07-28T05:58:05;19.80;74.00
439;DHT22;206;48.782;9.252;2023-07-28T06:00:31;19.80;74.80
439;DHT22;206;48.782;9.252;2023-07-28T06:02:57;19.90;74.00
439;DHT22;206;48.782;9.252;2023-07-28T06:05:22;19.90;73.70
439;DHT22;206;48.782;9.252;2023-07-28T06:07:48;19.90;74.00
439;DHT22;206;48.782;9.252;2023-07-28T06:10:14;19.90;73.40
439;DHT22;206;48.782;9.252;2023-07-28T06:12:39;20.00;73.20
439;DHT22;206;48.782;9.252;2023-07-28T06:15:06;20.00;73.10
439;DHT22;206;48.782;9.252;2023-07-28T06:17:32;20.00;74.20
439;DHT22;206;48.782;9.252;2023-07-28T06:19:58;20.00;74.10
439;DHT22;206;48.782;9.252;2023-07-28T06:22:24;20.00;75.10
439;DHT22;206;48.782;9.252;2023-07-28T06:24:50;20.00;75.80
439;DHT22;206;48.782;9.252;2023-07-28T06:27:15;19.90;77.40
439;DHT22;206;48.782;9.252;2023-07-28T06:29:41;19.90;78.00
439;DHT22;206;48.782;9.252;2023-07-28T06:32:07;19.80;77.30
439;DHT22;206;48.782;9.252;2023-07-28T06:34:33;19.80;78.20
439;DHT22;206;48.782;9.252;2023-07-28T06:36:58;19.80;77.30
439;DHT22;206;48.782;9.252;2023-07-28T06:39:24;19.80;78.10
439;DHT22;206;48.782;9.252;2023-07-28T06:41:50;19.90;77.90
439;DHT22;206;48.782;9.252;2023-07-28T06:44:16;19.90;77.80
439;DHT22;206;48.782;9.252;2023-07-28T06:46:42;19.90;77.30
439;DHT22;206;48.782;9.252;2023-07-28T06:49:07;20.00;77.50
439;DHT22;206;48.782;9.252;2023-07-28T06:51:33;20.00;77.60
439;DHT22;206;48.782;9.252;2023-07-28T06:53:59;20.00;77.60
439;DHT22;206;48.782;9.252;2023-07-28T06:56:25;20.10;77.60
439;DHT22;206;48.782;9.252;2023-07-28T06:58:50;20.10;77.30
439;DHT22;206;48.782;9.252;2023-07-28T07:01:16;20.00;77.50
439;DHT22;206;48.782;9.252;2023-07-28T07:03:43;20.00;78.60
439;DHT22;206;48.782;9.252;2023-07-28T07:06:09;20.00;79.30
439;DHT22;206;48.782;9.252;2023-07-28T07:08:34;20.00;78.90
439;DHT22;206;48.782;9.252;2023-07-28T07:11:00;20.10;77.90
439;DHT22;206;48.782;9.252;2023-07-28T07:13:25;20.20;77.70
439;DHT22;206;48.782;9.252;2023-07-28T07:15:51;20.30;76.10
439;DHT22;206;48.782;9.252;2023-07-28T07:18:17;20.30;76.40
439;DHT22;206;48.782;9.252;2023-07-28T07:20:43;20.40;75.60
439;DHT22;206;48.782;9.252;2023-07-28T07:23:08;20.50;75.10
439;DHT22;206;48.782;9.252;2023-07-28T07:25:34;20.50;74.50
439;DHT22;206;48.782;9.252;2023-07-28T07:28:00;20.50;74.40
439;DHT22;206;48.782;9.252;2023-07-28T07:30:25;20.50;74.40
439;DHT22;206;48.782;9.252;2023-07-28T07:32:51;20.60;73.10
439;DHT22;206;48.782;9.252;2023-07-28T07:35:16;20.70;72.10
439;DHT22;206;48.782;9.252;2023-07-28T07:37:42;20.70;69.60
439;DHT22;206;48.782;9.252;2023-07-28T07:40:09;20.80;69.10
439;DHT22;206;48.782;9.252;2023-07-28T07:42:43;20.90;69.00
439;DHT22;206;48.782;9.252;2023-07-28T07:45:12;21.00;68.70
439;DHT22;206;48.782;9.252;2023-07-28T07:47:40;21.00;68.50
439;DHT22;206;48.782;9.252;2023-07-28T07:50:09;21.20;67.10
439;DHT22;206;48.782;9.252;2023-07-28T07:52:36;21.20;65.30
439;DHT22;206;48.782;9.252;2023-07-28T07:55:03;21.30;63.60
439;DHT22;206;48.782;9.252;2023-07-28T07:57:29;21.40;63.70
439;DHT22;206;48.782;9.252;2023-07-28T07:59:55;21.50;62.20
439;DHT22;206;48.782;9.252;2023-07-28T08:02:21;21.50;62.80
439;DHT22;206;48.782;9.252;2023-07-28T08:04:46;21.60;62.60
439;DHT22;206;48.782;9.252;2023-07-28T08:07:12;21.60;62.70
439;DHT22;206;48.782;9.252;2023-07-28T08:09:37;21.60;62.90
439;DHT22;206;48.782;9.252;2023-07-28T08:12:04;21.60;61.00
439;DHT22;206;48.782;9.252;2023-07-28T08:14:29;21.70;61.10
439;DHT22;206;48.782;9.252;2023-07-28T08:16:55;21.80;60.50
439;DHT22;206;48.782;9.252;2023-07-28T08:19:21;21.90;60.30
439;DHT22;206;48.782;9.252;2023-07-28T08:21:46;21.90;59.40
439;DHT22;206;48.782;9.252;2023-07-28T08:24:12;22.00;58.50
439;DHT22;206;48.782;9.252;2023-07-28T08:26:37;22.00;57.90
439;DHT22;206;48.782;9.252;2023-07-28T08:29:03;22.00;57.50
439;DHT22;206;48.782;9.252;2023-07-28T08:31:29;22.00;58.10
439;DHT22;206;48.782;9.252;2023-07-28T08:33:54;21.90;58.10
439;DHT22;206;48.782;9.252;2023-07-28T08:36:20;21.90;58.30
439;DHT22;206;48.782;9.252;2023-07-28T08:38:46;21.90;57.40
439;DHT22;206;48.782;9.252;2023-07-28T08:41:12;22.00;57.90
439;DHT22;206;48.782;9.252;2023-07-28T08:43:39;22.00;57.40
439;DHT22;206;48.782;9.252;2023-07-28T08:46:05;22.00;56.70
439;DHT22;206;48.782;9.252;2023-07-28T08:48:31;22.00;55.80
439;DHT22;206;48.782;9.252;2023-07-28T08:50:57;22.10;57.00
439;DHT22;206;48.782;9.252;2023-07-28T08:53:22;22.10;55.60
439;DHT22;206;48.782;9.252;2023-07-28T08:55:48;22.10;55.40
439;DHT22;206;48.782;9.252;2023-07-28T08:58:21;22.10;54.50
439;DHT22;206;48.782;9.252;2023-07-28T09:00:48;22.20;55.40
439;DHT22;206;48.782;9.252;2023-07-28T09:03:15;22.20;55.50
439;DHT22;206;48.782;9.252;2023-07-28T09:05:42;22.20;54.50
439;DHT22;206;48.782;9.252;2023-07-28T09:08:08;22.30;54.00
439;DHT22;206;48.782;9.252;2023-07-28T09:10:55;22.30;54.60
439;DHT22;206;48.782;9.252;2023-07-28T09:13:20;22.40;55.40
439;DHT22;206;48.782;9.252;2023-07-28T09:15:46;22.40;54.70
439;DHT22;206;48.782;9.252;2023-07-28T09:18:16;22.40;54.70
439;DHT22;206;48.782;9.252;2023-07-28T09:20:42;22.30;54.60
439;DHT22;206;48.782;9.252;2023-07-28T09:23:09;22.40;54.70
439;DHT22;206;48.782;9.252;2023-07-28T09:25:36;22.40;54.70
439;DHT22;206;48.782;9.252;2023-07-28T09:28:02;22.40;55.30
439;DHT22;206;48.782;9.252;2023-07-28T09:30:45;22.50;55.30
439;DHT22;206;48.782;9.252;2023-07-28T09:33:11;22.50;55.50
439;DHT22;206;48.782;9.252;2023-07-28T09:35:48;22.50;55.20
439;DHT22;206;48.782;9.252;2023-07-28T09:38:14;22.50;55.60
439;DHT22;206;48.782;9.252;2023-07-28T09:40:40;22.50;54.80
439;DHT22;206;48.782;9.252;2023-07-28T09:43:07;22.50;56.10
439;DHT22;206;48.782;9.252;2023-07-28T09:45:33;22.60;55.90
439;DHT22;206;48.782;9.252;2023-07-28T09:48:02;22.70;55.70
439;DHT22;206;48.782;9.252;2023-07-28T09:50:32;22.80;55.10
439;DHT22;206;48.782;9.252;2023-07-28T09:53:02;22.90;54.70
439;DHT22;206;48.782;9.252;2023-07-28T09:55:28;23.10;55.30
439;DHT22;206;48.782;9.252;2023-07-28T09:57:55;23.10;54.10
439;DHT22;206;48.782;9.252;2023-07-28T10:00:22;23.20;55.40
439;DHT22;206;48.782;9.252;2023-07-28T10:02:49;23.20;52.80
439;DHT22;206;48.782;9.252;2023-07-28T10:05:15;23.20;52.00
439;DHT22;206;48.782;9.252;2023-07-28T10:07:45;23.30;51.30
439;DHT22;206;48.782;9.252;2023-07-28T10:10:12;23.30;51.30
439;DHT22;206;48.782;9.252;2023-07-28T10:12:52;23.30;47.60
439;DHT22;206;48.782;9.252;2023-07-28T10:15:19;23.30;49.20
439;DHT22;206;48.782;9.252;2023-07-28T10:17:47;23.30;48.40
439;DHT22;206;48.782;9.252;2023-07-28T10:20:27;23.40;45.70
439;DHT22;206;48.782;9.252;2023-07-28T10:22:53;23.50;46.50
439;DHT22;206;48.782;9.252;2023-07-28T10:25:23;23.60;45.90
439;DHT22;206;48.782;9.252;2023-07-28T10:27:51;23.70;45.80
439;DHT22;206;48.782;9.252;2023-07-28T10:30:17;23.70;46.00
439;DHT22;206;48.782;9.252;2023-07-28T10:32:48;23.70;44.30
439;DHT22;206;48.782;9.252;2023-07-28T10:37:47;23.70;45.20
439;DHT22;206;48.782;9.252;2023-07-28T10:40:34;23.70;45.90
439;DHT22;206;48.782;9.252;2023-07-28T10:43:02;23.80;45.00
439;DHT22;206;48.782;9.252;2023-07-28T10:45:30;23.70;45.70
439;DHT22;206;48.782;9.252;2023-07-28T10:47:57;23.70;46.00
439;DHT22;206;48.782;9.252;2023-07-28T10:50:29;23.70;44.90
439;DHT22;206;48.782;9.252;2023-07-28T10:52:56;23.70;44.40
439;DHT22;206;48.782;9.252;2023-07-28T10:55:23;23.70;44.70
439;DHT22;206;48.782;9.252;2023-07-28T10:57:51;23.70;45.10
439;DHT22;206;48.782;9.252;2023-07-28T11:00:19;23.80;45.70
439;DHT22;206;48.782;9.252;2023-07-28T11:02:49;23.80;43.90
439;DHT22;206;48.782;9.252;2023-07-28T11:05:27;23.90;44.40
439;DHT22;206;48.782;9.252;2023-07-28T11:07:57;23.90;44.70
439;DHT22;206;48.782;9.252;2023-07-28T11:10:23;24.00;45.10
439;DHT22;206;48.782;9.252;2023-07-28T11:12:51;24.10;44.00
439;DHT22;206;48.782;9.252;2023-07-28T11:15:18;24.20;42.70
439;DHT22;206;48.782;9.252;2023-07-28T11:17:49;24.20;41.90
439;DHT22;206;48.782;9.252;2023-07-28T11:20:22;24.40;42.60
439;DHT22;206;48.782;9.252;2023-07-28T11:23:02;24.50;41.50
439;DHT22;206;48.782;9.252;2023-07-28T11:25:32;24.60;39.70
439;DHT22;206;48.782;9.252;2023-07-28T11:28:01;24.70;39.00
439;DHT22;206;48.782;9.252;2023-07-28T11:30:27;24.70;38.50
439;DHT22;206;48.782;9.252;2023-07-28T11:32:53;24.80;37.70
439;DHT22;206;48.782;9.252;2023-07-28T11:35:20;24.90;37.30
439;DHT22;206;48.782;9.252;2023-07-28T11:37:49;24.90;37.10
439;DHT22;206;48.782;9.252;2023-07-28T11:40:18;25.00;37.20
439;DHT22;206;48.782;9.252;2023-07-28T11:42:54;25.00;36.90
439;DHT22;206;48.782;9.252;2023-07-28T11:45:21;25.10;36.90
439;DHT22;206;48.782;9.252;2023-07-28T11:48:06;25.20;35.40
439;DHT22;206;48.782;9.252;2023-07-28T11:50:40;25.30;36.30
439;DHT22;206;48.782;9.252;2023-07-28T11:53:07;25.50;36.00
439;DHT22;206;48.782;9.252;2023-07-28T11:55:35;25.70;34.90
439;DHT22;206;48.782;9.252;2023-07-28T11:58:02;25.90;33.30
439;DHT22;206;48.782;9.252;2023-07-28T12:00:36;26.00;33.50
439;DHT22;206;48.782;9.252;2023-07-28T12:03:11;26.10;32.70
439;DHT22;206;48.782;9.252;2023-07-28T12:05:42;26.10;32.00
439;DHT22;206;48.782;9.252;2023-07-28T12:08:36;26.00;31.60
439;DHT22;206;48.782;9.252;2023-07-28T12:11:02;26.00;32.10
439;DHT22;206;48.782;9.252;2023-07-28T12:13:27;26.00;32.30
439;DHT22;206;48.782;9.252;2023-07-28T12:15:54;25.90;32.90
439;DHT22;206;48.782;9.252;2023-07-28T12:18:20;25.90;34.20
439;DHT22;206;48.782;9.252;2023-07-28T12:20:47;25.90;37.80
439;DHT22;206;48.782;9.252;2023-07-28T12:23:17;25.80;38.30
439;DHT22;206;48.782;9.252;2023-07-28T12:25:43;25.60;33.70
439;DHT22;206;48.782;9.252;2023-07-28T12:28:10;25.50;33.40
439;DHT22;206;48.782;9.252;2023-07-28T12:30:36;25.30;33.40
439;DHT22;206;48.782;9.252;2023-07-28T12:33:03;25.30;34.50
439;DHT22;206;48.782;9.252;2023-07-28T12:35:30;25.30;36.40
439;DHT22;206;48.782;9.252;2023-07-28T12:38:01;25.30;35.20
439;DHT22;206;48.782;9.252;2023-07-28T12:40:29;25.30;34.20
439;DHT22;206;48.782;9.252;2023-07-28T12:42:55;25.30;35.20
439;DHT22;206;48.782;9.252;2023-07-28T12:45:21;25.30;33.40
439;DHT22;206;48.782;9.252;2023-07-28T12:47:47;25.20;33.10
439;DHT22;206;48.782;9.252;2023-07-28T12:50:13;25.20;34.00
439;DHT22;206;48.782;9.252;2023-07-28T12:52:38;25.20;35.20
439;DHT22;206;48.782;9.252;2023-07-28T12:55:04;25.20;34.20
439;DHT22;206;48.782;9.252;2023-07-28T12:57:31;25.20;33.90
439;DHT22;206;48.782;9.252;2023-07-28T12:59:56;25.30;33.60
439;DHT22;206;48.782;9.252;2023-07-28T13:02:22;25.30;33.40
439;DHT22;206;48.782;9.252;2023-07-28T13:04:47;25.30;36.40
439;DHT22;206;48.782;9.252;2023-07-28T13:07:13;25.30;35.70
439;DHT22;206;48.782;9.252;2023-07-28T13:09:39;25.20;33.70
439;DHT22;206;48.782;9.252;2023-07-28T13:12:07;25.20;34.90
439;DHT22;206;48.782;9.252;2023-07-28T13:14:33;25.20;35.30
439;DHT22;206;48.782;9.252;2023-07-28T13:16:59;25.20;35.50
439;DHT22;206;48.782;9.252;2023-07-28T13:19:24;25.20;34.70
439;DHT22;206;48.782;9.252;2023-07-28T13:21:50;25.30;35.90
439;DHT22;206;48.782;9.252;2023-07-28T13:24:16;25.30;34.30
439;DHT22;206;48.782;9.252;2023-07-28T13:26:41;25.40;35.20
439;DHT22;206;48.782;9.252;2023-07-28T13:29:07;25.40;34.40
439;DHT22;206;48.782;9.252;2023-07-28T13:31:33;25.30;34.10
439;DHT22;206;48.782;9.252;2023-07-28T13:33:59;25.30;35.20
439;DHT22;206;48.782;9.252;2023-07-28T13:36:24;25.40;37.10
439;DHT22;206;48.782;9.252;2023-07-28T13:38:50;25.40;38.10
439;DHT22;206;48.782;9.252;2023-07-28T13:41:16;25.30;40.60
439;DHT22;206;48.782;9.252;2023-07-28T13:43:41;25.20;42.00
439;DHT22;206;48.782;9.252;2023-07-28T13:46:07;25.10;43.00
439;DHT22;206;48.782;9.252;2023-07-28T13:48:33;25.00;45.20
439;DHT22;206;48.782;9.252;2023-07-28T13:51:01;24.90;45.70
439;DHT22;206;48.782;9.252;2023-07-28T13:53:27;24.70;46.90
439;DHT22;206;48.782;9.252;2023-07-28T13:55:54;24.60;48.50
439;DHT22;206;48.782;9.252;2023-07-28T13:58:20;24.40;51.20
439;DHT22;206;48.782;9.252;2023-07-28T14:00:45;24.20;55.50
439;DHT22;206;48.782;9.252;2023-07-28T14:03:11;23.90;58.20
439;DHT22;206;48.782;9.252;2023-07-28T14:05:38;23.60;61.60
439;DHT22;206;48.782;9.252;2023-07-28T14:08:03;23.30;66.50
439;DHT22;206;48.782;9.252;2023-07-28T14:10:29;23.00;68.80
439;DHT22;206;48.782;9.252;2023-07-28T14:12:54;22.80;68.40
439;DHT22;206;48.782;9.252;2023-07-28T14:15:20;22.70;70.10
439;DHT22;206;48.782;9.252;2023-07-28T14:17:45;22.60;70.70
439;DHT22;206;48.782;9.252;2023-07-28T14:20:11;22.50;69.90
439;DHT22;206;48.782;9.252;2023-07-28T14:22:37;22.30;72.50
439;DHT22;206;48.782;9.252;2023-07-28T14:25:03;22.30;68.90
439;DHT22;206;48.782;9.252;2023-07-28T14:27:29;22.20;69.40
439;DHT22;206;48.782;9.252;2023-07-28T14:29:54;22.20;71.50
439;DHT22;206;48.782;9.252;2023-07-28T14:32:20;22.30;72.30
439;DHT22;206;48.782;9.252;2023-07-28T14:34:45;22.30;72.30
439;DHT22;206;48.782;9.252;2023-07-28T14:37:11;22.30;73.70
439;DHT22;206;48.782;9.252;2023-07-28T14:39:37;22.40;72.60
439;DHT22;206;48.782;9.252;2023-07-28T14:42:03;22.50;70.10
439;DHT22;206;48.782;9.252;2023-07-28T14:44:28;22.50;70.60
439;DHT22;206;48.782;9.252;2023-07-28T14:46:54;22.60;70.30
439;DHT22;206;48.782;9.252;2023-07-28T14:49:20;22.60;72.60
439;DHT22;206;48.782;9.252;2023-07-28T14:51:46;22.70;70.80
439;DHT22;206;48.782;9.252;2023-07-28T14:54:12;22.70;71.50
439;DHT22;206;48.782;9.252;2023-07-28T14:56:37;22.60;71.70
439;DHT22;206;48.782;9.252;2023-07-28T14:59:03;22.60;70.00
439;DHT22;206;48.782;9.252;2023-07-28T15:01:34;22.50;72.80
439;DHT22;206;48.782;9.252;2023-07-28T15:04:00;22.50;71.40
439;DHT22;206;48.782;9.252;2023-07-28T15:06:27;22.50;72.00
439;DHT22;206;48.782;9.252;2023-07-28T15:08:53;22.50;70.80
439;DHT22;206;48.782;9.252;2023-07-28T15:11:19;22.60;70.50
439;DHT22;206;48.782;9.252;2023-07-28T15:13:44;22.60;68.10
439;DHT22;206;48.782;9.252;2023-07-28T15:16:10;22.60;69.00
439;DHT22;206;48.782;9.252;2023-07-28T15:18:35;22.50;71.90
439;DHT22;206;48.782;9.252;2023-07-28T15:21:01;22.60;72.20
439;DHT22;206;48.782;9.252;2023-07-28T15:23:27;22.60;71.70
439;DHT22;206;48.782;9.252;2023-07-28T15:25:53;22.70;72.40
439;DHT22;206;48.782;9.252;2023-07-28T15:28:22;22.80;72.50
439;DHT22;206;48.782;9.252;2023-07-28T15:30:48;22.80;69.60
439;DHT22;206;48.782;9.252;2023-07-28T15:33:19;22.90;70.10
439;DHT22;206;48.782;9.252;2023-07-28T15:35:45;23.00;69.40
439;DHT22;206;48.782;9.252;2023-07-28T15:38:11;23.10;69.30
439;DHT22;206;48.782;9.252;2023-07-28T15:40:37;23.00;67.60
439;DHT22;206;48.782;9.252;2023-07-28T15:43:02;22.90;66.70
439;DHT22;206;48.782;9.252;2023-07-28T15:45:30;22.80;67.00
439;DHT22;206;48.782;9.252;2023-07-28T15:47:56;22.80;69.20
439;DHT22;206;48.782;9.252;2023-07-28T15:50:21;22.80;67.30
439;DHT22;206;48.782;9.252;2023-07-28T15:52:47;22.80;67.20
439;DHT22;206;48.782;9.252;2023-07-28T15:55:14;22.80;68.70
439;DHT22;206;48.782;9.252;2023-07-28T15:57:39;22.70;69.50
439;DHT22;206;48.782;9.252;2023-07-28T16:00:05;22.70;70.10
439;DHT22;206;48.782;9.252;2023-07-28T16:02:32;22.70;71.40
439;DHT22;206;48.782;9.252;2023-07-28T16:04:58;22.60;70.00
439;DHT22;206;48.782;9.252;2023-07-28T16:07:23;22.50;70.90
439;DHT22;206;48.782;9.252;2023-07-28T16:09:49;22.60;75.10
439;DHT22;206;48.782;9.252;2023-07-28T16:12:15;22.70;72.00
439;DHT22;206;48.782;9.252;2023-07-28T16:14:40;22.70;70.80
439;DHT22;206;48.782;9.252;2023-07-28T16:17:06;22.80;70.60
439;DHT22;206;48.782;9.252;2023-07-28T16:19:31;22.80;73.00
439;DHT22;206;48.782;9.252;2023-07-28T16:21:57;22.70;72.90
439;DHT22;206;48.782;9.252;2023-07-28T16:24:24;22.70;69.10
439;DHT22;206;48.782;9.252;2023-07-28T16:26:51;22.70;70.50
439;DHT22;206;48.782;9.252;2023-07-28T16:29:17;22.70;68.50
439;DHT22;206;48.782;9.252;2023-07-28T16:31:43;22.60;67.70
439;DHT22;206;48.782;9.252;2023-07-28T16:34:09;22.60;68.90
439;DHT22;206;48.782;9.252;2023-07-28T16:36:35;22.70;74.60